sensor_id;sensor_type;location;lat;lon;timestamp;P1;durP1;ratioP1;P2;durP2;ratioP2
64938;SDS011;51453;47.738;7.420;2022-07-29T00:00:05;3.53;;;3.22;;
64938;SDS011;51453;47.738;7.420;2022-07-29T00:02:32;5.00;;;3.30;;
64938;SDS011;51453;47.738;7.420;2022-07-29T00:04:58;4.97;;;3.40;;
64938;SDS011;51453;47.738;7.420;2022-07-29T00:07:24;7.75;;;3.15;;
64938;SDS011;51453;47.738;7.420;2022-07-29T00:09:49;6.47;;;3.13;;
64938;SDS011;51453;47.738;7.420;2022-07-29T00:12:15;9.50;;;3.22;;
64938;SDS011;51453;47.738;7.420;2022-07-29T00:14:41;6.35;;;2.90;;
64938;SDS011;51453;47.738;7.420;2022-07-29T00:17:07;3.88;;;3.03;;
64938;SDS011;51453;47.738;7.420;2022-07-29T00:19:32;5.60;;;3.08;;
64938;SDS011;51453;47.738;7.420;2022-07-29T00:21:59;8.70;;;3.38;;
64938;SDS011;51453;47.738;7.420;2022-07-29T00:24:25;3.50;;;2.92;;
64938;SDS011;51453;47.738;7.420;2022-07-29T00:26:51;3.45;;;2.50;;
64938;SDS011;51453;47.738;7.420;2022-07-29T00:29:17;3.55;;;2.60;;
64938;SDS011;51453;47.738;7.420;2022-07-29T00:31:43;2.78;;;2.53;;
64938;SDS011;51453;47.738;7.420;2022-07-29T00:34:09;4.63;;;2.65;;
64938;SDS011;51453;47.738;7.420;2022-07-29T00:36:54;2.65;;;2.42;;
64938;SDS011;51453;47.738;7.420;2022-07-29T00:39:20;2.25;;;2.00;;
64938;SDS011;51453;47.738;7.420;2022-07-29T00:41:46;4.43;;;2.58;;
64938;SDS011;51453;47.738;7.420;2022-07-29T00:44:11;4.43;;;2.30;;
64938;SDS011;51453;47.738;7.420;2022-07-29T00:46:37;4.70;;;1.98;;
64938;SDS011;51453;47.738;7.420;2022-07-29T00:49:03;5.30;;;2.10;;
64938;SDS011;51453;47.738;7.420;2022-07-29T00:51:28;4.65;;;1.83;;
64938;SDS011;51453;47.738;7.420;2022-07-29T00:53:55;2.20;;;2.00;;
64938;SDS011;51453;47.738;7.420;2022-07-29T00:56:21;3.75;;;2.03;;
64938;SDS011;51453;47.738;7.420;2022-07-29T00:58:47;2.28;;;1.60;;
64938;SDS011;51453;47.738;7.420;2022-07-29T01:01:15;4.68;;;2.10;;
64938;SDS011;51453;47.738;7.420;2022-07-29T01:03:41;3.10;;;2.15;;
64938;SDS011;51453;47.738;7.420;2022-07-29T01:06:07;2.65;;;2.03;;
64938;SDS011;51453;47.738;7.420;2022-07-29T01:08:33;4.65;;;2.00;;
64938;SDS011;51453;47.738;7.420;2022-07-29T01:10:59;3.42;;;1.73;;
64938;SDS011;51453;47.738;7.420;2022-07-29T01:13:26;5.05;;;1.95;;
64938;SDS011;51453;47.738;7.420;2022-07-29T01:15:59;3.05;;;2.03;;
64938;SDS011;51453;47.738;7.420;2022-07-29T01:18:34;2.83;;;1.95;;
64938;SDS011;51453;47.738;7.420;2022-07-29T01:26:46;3.00;;;1.75;;
64938;SDS011;51453;47.738;7.420;2022-07-29T01:29:33;1.73;;;1.50;;
64938;SDS011;51453;47.738;7.420;2022-07-29T01:32:05;2.03;;;1.70;;
64938;SDS011;51453;47.738;7.420;2022-07-29T01:37:26;1.65;;;1.55;;
64938;SDS011;51453;47.738;7.420;2022-07-29T01:39:54;1.92;;;1.73;;
64938;SDS011;51453;47.738;7.420;2022-07-29T01:47:43;5.55;;;1.92;;
64938;SDS011;51453;47.738;7.420;2022-07-29T01:50:15;4.05;;;1.70;;
64938;SDS011;51453;47.738;7.420;2022-07-29T01:52:59;3.20;;;1.73;;
64938;SDS011;51453;47.738;7.420;2022-07-29T01:55:29;4.80;;;1.90;;
64938;SDS011;51453;47.738;7.420;2022-07-29T01:57:59;3.70;;;1.88;;
64938;SDS011;51453;47.738;7.420;2022-07-29T02:00:26;3.60;;;1.73;;
64938;SDS011;51453;47.738;7.420;2022-07-29T02:02:53;3.10;;;2.10;;
64938;SDS011;51453;47.738;7.420;2022-07-29T02:05:21;3.97;;;1.90;;
64938;SDS011;51453;47.738;7.420;2022-07-29T02:07:48;4.35;;;1.60;;
64938;SDS011;51453;47.738;7.420;2022-07-29T02:10:17;6.15;;;2.00;;
64938;SDS011;51453;47.738;7.420;2022-07-29T02:12:47;2.13;;;1.88;;
64938;SDS011;51453;47.738;7.420;2022-07-29T02:15:14;4.90;;;1.92;;
64938;SDS011;51453;47.738;7.420;2022-07-29T02:17:53;3.45;;;2.20;;
64938;SDS011;51453;47.738;7.420;2022-07-29T02:20:22;2.67;;;1.98;;
64938;SDS011;51453;47.738;7.420;2022-07-29T02:22:50;3.42;;;2.08;;
64938;SDS011;51453;47.738;7.420;2022-07-29T02:25:17;2.85;;;2.13;;
64938;SDS011;51453;47.738;7.420;2022-07-29T02:27:43;5.75;;;2.20;;
64938;SDS011;51453;47.738;7.420;2022-07-29T02:30:10;3.30;;;2.10;;
64938;SDS011;51453;47.738;7.420;2022-07-29T02:32:37;2.80;;;2.38;;
64938;SDS011;51453;47.738;7.420;2022-07-29T02:35:06;5.25;;;2.15;;
64938;SDS011;51453;47.738;7.420;2022-07-29T02:37:33;5.80;;;2.10;;
64938;SDS011;51453;47.738;7.420;2022-07-29T02:40:02;5.47;;;2.55;;
64938;SDS011;51453;47.738;7.420;2022-07-29T02:42:29;4.05;;;2.20;;
64938;SDS011;51453;47.738;7.420;2022-07-29T02:44:56;3.15;;;2.10;;
64938;SDS011;51453;47.738;7.420;2022-07-29T02:47:23;3.10;;;2.00;;
64938;SDS011;51453;47.738;7.420;2022-07-29T02:57:36;4.15;;;2.70;;
64938;SDS011;51453;47.738;7.420;2022-07-29T03:00:26;4.70;;;2.75;;
64938;SDS011;51453;47.738;7.420;2022-07-29T03:02:54;5.20;;;2.55;;
64938;SDS011;51453;47.738;7.420;2022-07-29T03:05:24;3.13;;;2.83;;
64938;SDS011;51453;47.738;7.420;2022-07-29T03:07:54;4.30;;;2.53;;
64938;SDS011;51453;47.738;7.420;2022-07-29T03:10:23;2.78;;;2.50;;
64938;SDS011;51453;47.738;7.420;2022-07-29T03:12:51;4.40;;;2.33;;
64938;SDS011;51453;47.738;7.420;2022-07-29T03:15:17;4.68;;;2.40;;
64938;SDS011;51453;47.738;7.420;2022-07-29T03:17:44;2.72;;;2.33;;
64938;SDS011;51453;47.738;7.420;2022-07-29T03:20:11;4.85;;;2.45;;
64938;SDS011;51453;47.738;7.420;2022-07-29T03:22:41;3.13;;;2.67;;
64938;SDS011;51453;47.738;7.420;2022-07-29T03:25:11;2.42;;;2.28;;
64938;SDS011;51453;47.738;7.420;2022-07-29T03:27:38;5.00;;;2.35;;
64938;SDS011;51453;47.738;7.420;2022-07-29T03:30:05;4.00;;;2.55;;
64938;SDS011;51453;47.738;7.420;2022-07-29T03:32:32;3.30;;;2.28;;
64938;SDS011;51453;47.738;7.420;2022-07-29T03:34:58;4.78;;;2.30;;
64938;SDS011;51453;47.738;7.420;2022-07-29T03:37:23;5.65;;;2.60;;
64938;SDS011;51453;47.738;7.420;2022-07-29T03:39:49;3.65;;;2.40;;
64938;SDS011;51453;47.738;7.420;2022-07-29T03:42:17;3.00;;;2.40;;
64938;SDS011;51453;47.738;7.420;2022-07-29T03:44:47;6.50;;;2.50;;
64938;SDS011;51453;47.738;7.420;2022-07-29T03:47:14;3.88;;;2.20;;
64938;SDS011;51453;47.738;7.420;2022-07-29T03:49:42;2.78;;;1.95;;
64938;SDS011;51453;47.738;7.420;2022-07-29T03:52:09;6.63;;;2.15;;
64938;SDS011;51453;47.738;7.420;2022-07-29T03:54:35;2.35;;;2.10;;
64938;SDS011;51453;47.738;7.420;2022-07-29T03:57:01;8.65;;;2.33;;
64938;SDS011;51453;47.738;7.420;2022-07-29T03:59:28;3.30;;;2.30;;
64938;SDS011;51453;47.738;7.420;2022-07-29T04:01:57;4.00;;;2.20;;
64938;SDS011;51453;47.738;7.420;2022-07-29T04:04:24;2.15;;;1.92;;
64938;SDS011;51453;47.738;7.420;2022-07-29T04:06:50;5.60;;;2.13;;
64938;SDS011;51453;47.738;7.420;2022-07-29T04:09:16;2.92;;;1.95;;
64938;SDS011;51453;47.738;7.420;2022-07-29T04:11:42;8.07;;;2.53;;
64938;SDS011;51453;47.738;7.420;2022-07-29T04:14:08;4.45;;;2.25;;
64938;SDS011;51453;47.738;7.420;2022-07-29T04:16:35;3.47;;;2.30;;
64938;SDS011;51453;47.738;7.420;2022-07-29T04:19:00;5.72;;;1.90;;
64938;SDS011;51453;47.738;7.420;2022-07-29T04:21:26;4.45;;;2.45;;
64938;SDS011;51453;47.738;7.420;2022-07-29T04:23:51;4.05;;;2.80;;
64938;SDS011;51453;47.738;7.420;2022-07-29T04:26:17;6.03;;;2.40;;
64938;SDS011;51453;47.738;7.420;2022-07-29T04:28:44;5.35;;;2.28;;
64938;SDS011;51453;47.738;7.420;2022-07-29T04:31:10;9.80;;;3.10;;
64938;SDS011;51453;47.738;7.420;2022-07-29T04:33:37;7.22;;;2.50;;
64938;SDS011;51453;47.738;7.420;2022-07-29T04:36:03;4.82;;;2.28;;
64938;SDS011;51453;47.738;7.420;2022-07-29T04:38:29;2.70;;;2.00;;
64938;SDS011;51453;47.738;7.420;2022-07-29T04:40:55;8.40;;;2.40;;
64938;SDS011;51453;47.738;7.420;2022-07-29T04:43:20;2.83;;;1.70;;
64938;SDS011;51453;47.738;7.420;2022-07-29T04:45:46;5.65;;;2.00;;
64938;SDS011;51453;47.738;7.420;2022-07-29T04:48:12;4.70;;;2.30;;
64938;SDS011;51453;47.738;7.420;2022-07-29T04:50:38;4.97;;;2.10;;
64938;SDS011;51453;47.738;7.420;2022-07-29T04:53:04;5.13;;;2.17;;
64938;SDS011;51453;47.738;7.420;2022-07-29T04:55:30;2.35;;;1.90;;
64938;SDS011;51453;47.738;7.420;2022-07-29T04:57:56;2.80;;;2.13;;
64938;SDS011;51453;47.738;7.420;2022-07-29T05:00:22;4.20;;;1.70;;
64938;SDS011;51453;47.738;7.420;2022-07-29T05:02:48;5.50;;;2.30;;
64938;SDS011;51453;47.738;7.420;2022-07-29T05:05:14;5.07;;;2.30;;
64938;SDS011;51453;47.738;7.420;2022-07-29T05:07:40;2.45;;;2.20;;
64938;SDS011;51453;47.738;7.420;2022-07-29T05:10:06;3.28;;;2.05;;
64938;SDS011;51453;47.738;7.420;2022-07-29T05:12:32;2.83;;;2.05;;
64938;SDS011;51453;47.738;7.420;2022-07-29T05:14:58;2.80;;;2.00;;
64938;SDS011;51453;47.738;7.420;2022-07-29T05:17:24;8.68;;;2.30;;
64938;SDS011;51453;47.738;7.420;2022-07-29T05:19:50;6.78;;;1.90;;
64938;SDS011;51453;47.738;7.420;2022-07-29T05:22:17;3.00;;;1.95;;
64938;SDS011;51453;47.738;7.420;2022-07-29T05:24:43;4.00;;;1.80;;
64938;SDS011;51453;47.738;7.420;2022-07-29T05:27:09;2.78;;;1.80;;
64938;SDS011;51453;47.738;7.420;2022-07-29T05:29:35;3.38;;;2.00;;
64938;SDS011;51453;47.738;7.420;2022-07-29T05:32:01;7.90;;;2.08;;
64938;SDS011;51453;47.738;7.420;2022-07-29T05:34:28;3.35;;;2.08;;
64938;SDS011;51453;47.738;7.420;2022-07-29T05:36:53;2.17;;;1.92;;
64938;SDS011;51453;47.738;7.420;2022-07-29T05:39:19;4.82;;;2.10;;
64938;SDS011;51453;47.738;7.420;2022-07-29T05:41:45;4.20;;;1.83;;
64938;SDS011;51453;47.738;7.420;2022-07-29T05:44:11;2.35;;;1.38;;
64938;SDS011;51453;47.738;7.420;2022-07-29T05:46:38;3.85;;;1.80;;
64938;SDS011;51453;47.738;7.420;2022-07-29T05:49:04;4.63;;;1.73;;
64938;SDS011;51453;47.738;7.420;2022-07-29T05:51:31;4.13;;;1.67;;
64938;SDS011;51453;47.738;7.420;2022-07-29T05:53:57;3.35;;;1.70;;
64938;SDS011;51453;47.738;7.420;2022-07-29T05:56:23;7.90;;;1.60;;
64938;SDS011;51453;47.738;7.420;2022-07-29T05:58:49;7.10;;;1.92;;
64938;SDS011;51453;47.738;7.420;2022-07-29T06:01:15;5.80;;;1.80;;
64938;SDS011;51453;47.738;7.420;2022-07-29T06:03:41;3.65;;;1.70;;
64938;SDS011;51453;47.738;7.420;2022-07-29T06:06:07;5.25;;;1.80;;
64938;SDS011;51453;47.738;7.420;2022-07-29T06:08:33;5.53;;;1.70;;
64938;SDS011;51453;47.738;7.420;2022-07-29T06:10:59;4.03;;;1.85;;
64938;SDS011;51453;47.738;7.420;2022-07-29T06:13:25;3.00;;;1.92;;
64938;SDS011;51453;47.738;7.420;2022-07-29T06:15:51;3.25;;;1.90;;
64938;SDS011;51453;47.738;7.420;2022-07-29T06:18:16;4.85;;;1.80;;
64938;SDS011;51453;47.738;7.420;2022-07-29T06:20:42;5.03;;;1.70;;
64938;SDS011;51453;47.738;7.420;2022-07-29T06:23:08;6.38;;;1.95;;
64938;SDS011;51453;47.738;7.420;2022-07-29T06:25:35;5.57;;;2.00;;
64938;SDS011;51453;47.738;7.420;2022-07-29T06:28:02;6.05;;;1.90;;
64938;SDS011;51453;47.738;7.420;2022-07-29T06:30:28;3.75;;;1.80;;
64938;SDS011;51453;47.738;7.420;2022-07-29T06:32:54;12.35;;;2.20;;
64938;SDS011;51453;47.738;7.420;2022-07-29T06:35:20;4.70;;;1.77;;
64938;SDS011;51453;47.738;7.420;2022-07-29T06:37:46;8.05;;;2.05;;
64938;SDS011;51453;47.738;7.420;2022-07-29T06:40:12;6.72;;;2.10;;
64938;SDS011;51453;47.738;7.420;2022-07-29T06:42:56;2.13;;;1.60;;
64938;SDS011;51453;47.738;7.420;2022-07-29T06:45:22;9.95;;;2.00;;
64938;SDS011;51453;47.738;7.420;2022-07-29T06:47:47;5.55;;;1.80;;
64938;SDS011;51453;47.738;7.420;2022-07-29T06:50:14;3.25;;;2.05;;
64938;SDS011;51453;47.738;7.420;2022-07-29T06:52:40;7.78;;;1.90;;
64938;SDS011;51453;47.738;7.420;2022-07-29T06:55:06;3.72;;;1.60;;
64938;SDS011;51453;47.738;7.420;2022-07-29T06:57:32;7.00;;;1.77;;
64938;SDS011;51453;47.738;7.420;2022-07-29T06:59:59;3.08;;;1.80;;
64938;SDS011;51453;47.738;7.420;2022-07-29T07:02:24;6.47;;;1.83;;
64938;SDS011;51453;47.738;7.420;2022-07-29T07:04:50;3.33;;;1.60;;
64938;SDS011;51453;47.738;7.420;2022-07-29T07:10:19;6.95;;;2.20;;
64938;SDS011;51453;47.738;7.420;2022-07-29T07:12:45;3.10;;;2.00;;
64938;SDS011;51453;47.738;7.420;2022-07-29T07:15:11;5.07;;;1.92;;
64938;SDS011;51453;47.738;7.420;2022-07-29T07:17:36;5.60;;;2.15;;
64938;SDS011;51453;47.738;7.420;2022-07-29T07:20:03;8.82;;;2.40;;
64938;SDS011;51453;47.738;7.420;2022-07-29T07:22:30;8.13;;;2.47;;
64938;SDS011;51453;47.738;7.420;2022-07-29T07:24:55;5.47;;;2.10;;
64938;SDS011;51453;47.738;7.420;2022-07-29T07:27:21;19.45;;;2.30;;
64938;SDS011;51453;47.738;7.420;2022-07-29T07:29:47;4.35;;;1.88;;
64938;SDS011;51453;47.738;7.420;2022-07-29T07:32:12;7.75;;;2.08;;
64938;SDS011;51453;47.738;7.420;2022-07-29T07:34:41;3.63;;;1.88;;
64938;SDS011;51453;47.738;7.420;2022-07-29T07:37:08;4.18;;;2.20;;
64938;SDS011;51453;47.738;7.420;2022-07-29T07:39:34;6.93;;;2.20;;
64938;SDS011;51453;47.738;7.420;2022-07-29T07:42:00;4.43;;;2.05;;
64938;SDS011;51453;47.738;7.420;2022-07-29T07:44:25;6.35;;;2.13;;
64938;SDS011;51453;47.738;7.420;2022-07-29T07:46:51;7.45;;;2.08;;
64938;SDS011;51453;47.738;7.420;2022-07-29T07:49:17;8.32;;;2.05;;
64938;SDS011;51453;47.738;7.420;2022-07-29T07:51:43;5.10;;;1.70;;
64938;SDS011;51453;47.738;7.420;2022-07-29T07:54:09;8.90;;;1.90;;
64938;SDS011;51453;47.738;7.420;2022-07-29T07:56:35;3.65;;;2.10;;
64938;SDS011;51453;47.738;7.420;2022-07-29T07:59:00;5.85;;;1.90;;
64938;SDS011;51453;47.738;7.420;2022-07-29T08:01:26;6.60;;;1.95;;
64938;SDS011;51453;47.738;7.420;2022-07-29T08:03:51;8.23;;;2.17;;
64938;SDS011;51453;47.738;7.420;2022-07-29T08:06:17;2.60;;;2.20;;
64938;SDS011;51453;47.738;7.420;2022-07-29T08:08:43;4.88;;;2.20;;
64938;SDS011;51453;47.738;7.420;2022-07-29T08:11:08;8.02;;;2.38;;
64938;SDS011;51453;47.738;7.420;2022-07-29T08:13:34;5.93;;;2.03;;
64938;SDS011;51453;47.738;7.420;2022-07-29T08:16:01;9.48;;;1.65;;
64938;SDS011;51453;47.738;7.420;2022-07-29T08:18:36;4.80;;;1.90;;
64938;SDS011;51453;47.738;7.420;2022-07-29T08:21:02;7.28;;;2.20;;
64938;SDS011;51453;47.738;7.420;2022-07-29T08:23:28;7.28;;;2.30;;
64938;SDS011;51453;47.738;7.420;2022-07-29T08:26:03;6.20;;;2.08;;
64938;SDS011;51453;47.738;7.420;2022-07-29T08:28:37;4.75;;;2.00;;
64938;SDS011;51453;47.738;7.420;2022-07-29T08:31:02;6.15;;;2.20;;
64938;SDS011;51453;47.738;7.420;2022-07-29T08:33:28;10.18;;;2.13;;
64938;SDS011;51453;47.738;7.420;2022-07-29T08:35:54;2.92;;;2.10;;
64938;SDS011;51453;47.738;7.420;2022-07-29T08:38:20;6.45;;;1.95;;
64938;SDS011;51453;47.738;7.420;2022-07-29T08:40:46;3.53;;;2.00;;
64938;SDS011;51453;47.738;7.420;2022-07-29T08:43:12;4.68;;;2.10;;
64938;SDS011;51453;47.738;7.420;2022-07-29T08:45:45;7.32;;;2.38;;
64938;SDS011;51453;47.738;7.420;2022-07-29T08:48:14;4.28;;;2.20;;
64938;SDS011;51453;47.738;7.420;2022-07-29T08:50:42;5.75;;;2.30;;
64938;SDS011;51453;47.738;7.420;2022-07-29T08:53:10;8.88;;;2.38;;
64938;SDS011;51453;47.738;7.420;2022-07-29T08:55:39;7.18;;;2.22;;
64938;SDS011;51453;47.738;7.420;2022-07-29T08:58:07;7.32;;;1.98;;
64938;SDS011;51453;47.738;7.420;2022-07-29T09:00:35;4.30;;;2.10;;
64938;SDS011;51453;47.738;7.420;2022-07-29T09:03:05;6.03;;;2.30;;
64938;SDS011;51453;47.738;7.420;2022-07-29T09:05:31;5.05;;;2.40;;
64938;SDS011;51453;47.738;7.420;2022-07-29T09:07:58;5.88;;;2.20;;
64938;SDS011;51453;47.738;7.420;2022-07-29T09:10:24;4.43;;;2.40;;
64938;SDS011;51453;47.738;7.420;2022-07-29T09:12:50;6.55;;;3.10;;
64938;SDS011;51453;47.738;7.420;2022-07-29T09:15:17;4.53;;;2.45;;
64938;SDS011;51453;47.738;7.420;2022-07-29T09:17:45;5.10;;;2.80;;
64938;SDS011;51453;47.738;7.420;2022-07-29T09:20:16;7.65;;;2.53;;
64938;SDS011;51453;47.738;7.420;2022-07-29T09:22:44;4.60;;;2.38;;
64938;SDS011;51453;47.738;7.420;2022-07-29T09:25:15;7.30;;;2.55;;
64938;SDS011;51453;47.738;7.420;2022-07-29T09:28:09;5.38;;;2.13;;
64938;SDS011;51453;47.738;7.420;2022-07-29T09:30:35;6.70;;;2.42;;
64938;SDS011;51453;47.738;7.420;2022-07-29T09:33:23;8.40;;;2.33;;
64938;SDS011;51453;47.738;7.420;2022-07-29T09:36:00;5.72;;;2.35;;
64938;SDS011;51453;47.738;7.420;2022-07-29T09:38:31;5.55;;;2.25;;
64938;SDS011;51453;47.738;7.420;2022-07-29T09:40:59;6.10;;;2.40;;
64938;SDS011;51453;47.738;7.420;2022-07-29T09:43:25;6.38;;;2.20;;
64938;SDS011;51453;47.738;7.420;2022-07-29T09:45:51;7.55;;;2.30;;
64938;SDS011;51453;47.738;7.420;2022-07-29T09:48:18;8.30;;;2.35;;
64938;SDS011;51453;47.738;7.420;2022-07-29T09:50:47;6.03;;;2.33;;
64938;SDS011;51453;47.738;7.420;2022-07-29T09:56:00;8.15;;;2.13;;
64938;SDS011;51453;47.738;7.420;2022-07-29T09:58:26;5.53;;;2.28;;
64938;SDS011;51453;47.738;7.420;2022-07-29T10:00:52;9.88;;;2.78;;
64938;SDS011;51453;47.738;7.420;2022-07-29T10:03:19;4.03;;;2.05;;
64938;SDS011;51453;47.738;7.420;2022-07-29T10:05:46;3.08;;;2.15;;
64938;SDS011;51453;47.738;7.420;2022-07-29T10:08:30;3.53;;;2.10;;
64938;SDS011;51453;47.738;7.420;2022-07-29T10:11:08;6.97;;;2.67;;
64938;SDS011;51453;47.738;7.420;2022-07-29T10:13:35;7.93;;;2.40;;
64938;SDS011;51453;47.738;7.420;2022-07-29T10:16:01;6.18;;;2.05;;
64938;SDS011;51453;47.738;7.420;2022-07-29T10:18:27;9.98;;;2.25;;
64938;SDS011;51453;47.738;7.420;2022-07-29T10:20:54;5.13;;;2.15;;
64938;SDS011;51453;47.738;7.420;2022-07-29T10:23:20;7.22;;;2.63;;
64938;SDS011;51453;47.738;7.420;2022-07-29T10:25:46;7.10;;;2.40;;
64938;SDS011;51453;47.738;7.420;2022-07-29T10:28:12;5.07;;;1.98;;
64938;SDS011;51453;47.738;7.420;2022-07-29T10:30:38;6.03;;;2.25;;
64938;SDS011;51453;47.738;7.420;2022-07-29T10:42:19;5.30;;;2.20;;
64938;SDS011;51453;47.738;7.420;2022-07-29T10:44:48;7.22;;;2.10;;
64938;SDS011;51453;47.738;7.420;2022-07-29T10:52:45;6.47;;;2.33;;
64938;SDS011;51453;47.738;7.420;2022-07-29T10:55:41;4.90;;;1.88;;
64938;SDS011;51453;47.738;7.420;2022-07-29T10:58:19;7.13;;;2.20;;
64938;SDS011;51453;47.738;7.420;2022-07-29T11:00:49;4.60;;;2.03;;
64938;SDS011;51453;47.738;7.420;2022-07-29T11:06:14;7.63;;;2.00;;
64938;SDS011;51453;47.738;7.420;2022-07-29T11:08:41;4.00;;;1.92;;
64938;SDS011;51453;47.738;7.420;2022-07-29T11:16:15;7.28;;;1.90;;
64938;SDS011;51453;47.738;7.420;2022-07-29T11:21:36;6.43;;;2.08;;
64938;SDS011;51453;47.738;7.420;2022-07-29T11:24:14;6.72;;;2.20;;
64938;SDS011;51453;47.738;7.420;2022-07-29T11:26:43;8.10;;;1.85;;
64938;SDS011;51453;47.738;7.420;2022-07-29T11:29:20;6.10;;;2.10;;
64938;SDS011;51453;47.738;7.420;2022-07-29T11:31:50;7.88;;;2.00;;
64938;SDS011;51453;47.738;7.420;2022-07-29T11:34:25;4.07;;;2.38;;
64938;SDS011;51453;47.738;7.420;2022-07-29T11:39:32;9.15;;;2.20;;
64938;SDS011;51453;47.738;7.420;2022-07-29T11:47:25;4.85;;;2.13;;
64938;SDS011;51453;47.738;7.420;2022-07-29T11:49:53;7.80;;;2.63;;
64938;SDS011;51453;47.738;7.420;2022-07-29T11:52:21;8.93;;;2.75;;
64938;SDS011;51453;47.738;7.420;2022-07-29T11:54:47;24.23;;;3.40;;
64938;SDS011;51453;47.738;7.420;2022-07-29T11:57:17;14.13;;;2.67;;
64938;SDS011;51453;47.738;7.420;2022-07-29T11:59:44;8.23;;;2.22;;
64938;SDS011;51453;47.738;7.420;2022-07-29T12:02:12;3.92;;;1.85;;
64938;SDS011;51453;47.738;7.420;2022-07-29T12:04:48;10.48;;;2.30;;
64938;SDS011;51453;47.738;7.420;2022-07-29T12:07:31;7.65;;;2.58;;
64938;SDS011;51453;47.738;7.420;2022-07-29T12:09:58;10.18;;;2.40;;
64938;SDS011;51453;47.738;7.420;2022-07-29T12:12:25;7.15;;;2.60;;
64938;SDS011;51453;47.738;7.420;2022-07-29T12:14:51;7.28;;;2.60;;
64938;SDS011;51453;47.738;7.420;2022-07-29T12:19:55;4.50;;;2.80;;
64938;SDS011;51453;47.738;7.420;2022-07-29T12:22:26;5.00;;;3.00;;
64938;SDS011;51453;47.738;7.420;2022-07-29T12:25:03;4.93;;;2.90;;
64938;SDS011;51453;47.738;7.420;2022-07-29T12:27:31;2.80;;;2.60;;
64938;SDS011;51453;47.738;7.420;2022-07-29T12:30:02;6.07;;;3.08;;
64938;SDS011;51453;47.738;7.420;2022-07-29T12:34:59;3.97;;;2.60;;
64938;SDS011;51453;47.738;7.420;2022-07-29T12:37:34;7.05;;;2.47;;
64938;SDS011;51453;47.738;7.420;2022-07-29T12:40:02;5.88;;;2.30;;
64938;SDS011;51453;47.738;7.420;2022-07-29T12:42:29;4.47;;;2.00;;
64938;SDS011;51453;47.738;7.420;2022-07-29T12:44:54;5.80;;;2.17;;
64938;SDS011;51453;47.738;7.420;2022-07-29T12:47:22;3.65;;;2.03;;
64938;SDS011;51453;47.738;7.420;2022-07-29T12:49:48;3.63;;;1.77;;
64938;SDS011;51453;47.738;7.420;2022-07-29T12:52:29;5.10;;;1.98;;
64938;SDS011;51453;47.738;7.420;2022-07-29T12:54:56;6.45;;;1.95;;
64938;SDS011;51453;47.738;7.420;2022-07-29T12:57:22;3.78;;;1.98;;
64938;SDS011;51453;47.738;7.420;2022-07-29T12:59:58;6.32;;;2.10;;
64938;SDS011;51453;47.738;7.420;2022-07-29T13:02:24;4.00;;;2.13;;
64938;SDS011;51453;47.738;7.420;2022-07-29T13:04:57;5.50;;;1.90;;
64938;SDS011;51453;47.738;7.420;2022-07-29T13:07:24;2.65;;;1.50;;
64938;SDS011;51453;47.738;7.420;2022-07-29T13:12:34;7.38;;;1.90;;
64938;SDS011;51453;47.738;7.420;2022-07-29T13:14:59;3.22;;;1.52;;
64938;SDS011;51453;47.738;7.420;2022-07-29T13:17:25;4.00;;;1.90;;
64938;SDS011;51453;47.738;7.420;2022-07-29T13:20:07;4.78;;;1.75;;
64938;SDS011;51453;47.738;7.420;2022-07-29T13:22:37;5.55;;;1.60;;
64938;SDS011;51453;47.738;7.420;2022-07-29T13:25:04;5.43;;;1.50;;
64938;SDS011;51453;47.738;7.420;2022-07-29T13:27:34;1.75;;;1.38;;
64938;SDS011;51453;47.738;7.420;2022-07-29T13:30:05;2.17;;;1.33;;
64938;SDS011;51453;47.738;7.420;2022-07-29T13:32:33;5.13;;;1.35;;
64938;SDS011;51453;47.738;7.420;2022-07-29T13:35:03;7.22;;;1.35;;
64938;SDS011;51453;47.738;7.420;2022-07-29T13:37:32;5.75;;;1.45;;
64938;SDS011;51453;47.738;7.420;2022-07-29T13:39:59;4.05;;;1.38;;
64938;SDS011;51453;47.738;7.420;2022-07-29T13:42:28;3.38;;;1.50;;
64938;SDS011;51453;47.738;7.420;2022-07-29T13:44:53;2.25;;;1.33;;
64938;SDS011;51453;47.738;7.420;2022-07-29T13:47:20;2.80;;;1.35;;
64938;SDS011;51453;47.738;7.420;2022-07-29T13:49:46;4.32;;;2.00;;
64938;SDS011;51453;47.738;7.420;2022-07-29T13:52:12;5.03;;;1.52;;
64938;SDS011;51453;47.738;7.420;2022-07-29T13:54:38;3.25;;;1.60;;
64938;SDS011;51453;47.738;7.420;2022-07-29T13:57:04;3.95;;;1.42;;
64938;SDS011;51453;47.738;7.420;2022-07-29T13:59:30;3.65;;;1.45;;
64938;SDS011;51453;47.738;7.420;2022-07-29T14:01:56;4.40;;;1.33;;
64938;SDS011;51453;47.738;7.420;2022-07-29T14:04:21;3.67;;;1.83;;
64938;SDS011;51453;47.738;7.420;2022-07-29T14:06:50;2.13;;;1.17;;
64938;SDS011;51453;47.738;7.420;2022-07-29T14:09:16;5.45;;;1.15;;
64938;SDS011;51453;47.738;7.420;2022-07-29T14:11:42;4.65;;;1.50;;
64938;SDS011;51453;47.738;7.420;2022-07-29T14:14:08;2.75;;;1.23;;
64938;SDS011;51453;47.738;7.420;2022-07-29T14:16:35;3.42;;;1.00;;
64938;SDS011;51453;47.738;7.420;2022-07-29T14:19:01;3.15;;;1.40;;
64938;SDS011;51453;47.738;7.420;2022-07-29T14:21:27;3.10;;;1.45;;
64938;SDS011;51453;47.738;7.420;2022-07-29T14:23:52;3.22;;;1.27;;
64938;SDS011;51453;47.738;7.420;2022-07-29T14:26:19;4.30;;;1.30;;
64938;SDS011;51453;47.738;7.420;2022-07-29T14:28:46;2.65;;;1.17;;
64938;SDS011;51453;47.738;7.420;2022-07-29T14:31:12;6.43;;;1.40;;
64938;SDS011;51453;47.738;7.420;2022-07-29T14:33:38;5.70;;;1.30;;
64938;SDS011;51453;47.738;7.420;2022-07-29T14:36:04;6.72;;;1.90;;
64938;SDS011;51453;47.738;7.420;2022-07-29T14:38:30;6.82;;;1.40;;
64938;SDS011;51453;47.738;7.420;2022-07-29T14:40:56;6.35;;;1.38;;
64938;SDS011;51453;47.738;7.420;2022-07-29T14:43:21;2.45;;;1.20;;
64938;SDS011;51453;47.738;7.420;2022-07-29T14:45:47;6.18;;;1.40;;
64938;SDS011;51453;47.738;7.420;2022-07-29T14:48:13;3.25;;;1.30;;
64938;SDS011;51453;47.738;7.420;2022-07-29T14:50:38;3.47;;;1.20;;
64938;SDS011;51453;47.738;7.420;2022-07-29T14:53:04;2.63;;;1.10;;
64938;SDS011;51453;47.738;7.420;2022-07-29T14:55:30;2.00;;;1.10;;
64938;SDS011;51453;47.738;7.420;2022-07-29T14:57:55;3.75;;;1.00;;
64938;SDS011;51453;47.738;7.420;2022-07-29T15:00:21;1.63;;;0.90;;
64938;SDS011;51453;47.738;7.420;2022-07-29T15:02:47;5.85;;;1.20;;
64938;SDS011;51453;47.738;7.420;2022-07-29T15:05:14;4.00;;;1.00;;
64938;SDS011;51453;47.738;7.420;2022-07-29T15:07:39;4.32;;;1.30;;
64938;SDS011;51453;47.738;7.420;2022-07-29T15:10:06;4.72;;;1.20;;
64938;SDS011;51453;47.738;7.420;2022-07-29T15:12:32;3.00;;;1.40;;
64938;SDS011;51453;47.738;7.420;2022-07-29T15:14:58;4.20;;;1.13;;
64938;SDS011;51453;47.738;7.420;2022-07-29T15:17:24;4.25;;;1.27;;
64938;SDS011;51453;47.738;7.420;2022-07-29T15:19:49;6.57;;;1.10;;
64938;SDS011;51453;47.738;7.420;2022-07-29T15:22:15;3.90;;;1.23;;
64938;SDS011;51453;47.738;7.420;2022-07-29T15:24:41;2.45;;;1.33;;
64938;SDS011;51453;47.738;7.420;2022-07-29T15:27:07;2.67;;;1.33;;
64938;SDS011;51453;47.738;7.420;2022-07-29T15:29:38;3.35;;;1.33;;
64938;SDS011;51453;47.738;7.420;2022-07-29T15:32:08;4.68;;;1.30;;
64938;SDS011;51453;47.738;7.420;2022-07-29T15:34:34;2.00;;;1.10;;
64938;SDS011;51453;47.738;7.420;2022-07-29T15:37:00;1.85;;;1.05;;
64938;SDS011;51453;47.738;7.420;2022-07-29T15:39:25;5.85;;;1.15;;
64938;SDS011;51453;47.738;7.420;2022-07-29T15:41:51;2.70;;;1.17;;
64938;SDS011;51453;47.738;7.420;2022-07-29T15:44:17;3.17;;;1.15;;
64938;SDS011;51453;47.738;7.420;2022-07-29T15:46:43;1.30;;;0.98;;
64938;SDS011;51453;47.738;7.420;2022-07-29T15:49:28;3.75;;;1.00;;
64938;SDS011;51453;47.738;7.420;2022-07-29T15:52:04;4.57;;;1.15;;
64938;SDS011;51453;47.738;7.420;2022-07-29T15:54:32;2.50;;;1.20;;
64938;SDS011;51453;47.738;7.420;2022-07-29T15:56:59;5.82;;;1.30;;
64938;SDS011;51453;47.738;7.420;2022-07-29T15:59:24;5.55;;;1.30;;